sensor_id;sensor_type;location;lat;lon;timestamp;pressure;altitude;pressure_sealevel;temperature;humidity
54948;BME280;41113;41.882;12.530;2023-02-18T00:00:20;102695.47;;;7.71;86.54
54948;BME280;41113;41.882;12.530;2023-02-18T00:02:47;102694.22;;;7.59;87.84
54948;BME280;41113;41.882;12.530;2023-02-18T00:05:14;102697.81;;;7.58;88.18
54948;BME280;41113;41.882;12.530;2023-02-18T00:07:40;102694.22;;;7.59;87.52
54948;BME280;41113;41.882;12.530;2023-02-18T00:10:10;102690.88;;;7.54;88.36
54948;BME280;41113;41.882;12.530;2023-02-18T00:12:35;102676.44;;;7.58;88.32
54948;BME280;41113;41.882;12.530;2023-02-18T00:15:01;102682.44;;;7.63;88.07
54948;BME280;41113;41.882;12.530;2023-02-18T00:17:27;102677.75;;;7.68;87.50
54948;BME280;41113;41.882;12.530;2023-02-18T00:19:53;102677.59;;;7.71;87.69
54948;BME280;41113;41.882;12.530;2023-02-18T00:22:18;102678.69;;;7.67;87.48
54948;BME280;41113;41.882;12.530;2023-02-18T00:24:44;102672.25;;;7.71;87.56
54948;BME280;41113;41.882;12.530;2023-02-18T00:27:09;102675.88;;;7.70;87.78
54948;BME280;41113;41.882;12.530;2023-02-18T00:29:35;102666.03;;;7.71;87.93
54948;BME280;41113;41.882;12.530;2023-02-18T00:32:01;102659.16;;;7.65;87.87
54948;BME280;41113;41.882;12.530;2023-02-18T00:34:26;102651.00;;;7.68;87.78
54948;BME280;41113;41.882;12.530;2023-02-18T00:36:51;102650.56;;;7.59;88.30
54948;BME280;41113;41.882;12.530;2023-02-18T00:39:17;102648.91;;;7.56;88.42
54948;BME280;41113;41.882;12.530;2023-02-18T00:41:42;102644.47;;;7.55;88.71
54948;BME280;41113;41.882;12.530;2023-02-18T00:44:09;102641.81;;;7.55;88.85
54948;BME280;41113;41.882;12.530;2023-02-18T00:46:35;102639.28;;;7.52;89.14
54948;BME280;41113;41.882;12.530;2023-02-18T00:49:00;102636.06;;;7.44;89.77
54948;BME280;41113;41.882;12.530;2023-02-18T00:51:26;102645.00;;;7.43;90.11
54948;BME280;41113;41.882;12.530;2023-02-18T00:53:51;102638.59;;;7.47;89.73
54948;BME280;41113;41.882;12.530;2023-02-18T00:56:17;102637.13;;;7.60;88.64
54948;BME280;41113;41.882;12.530;2023-02-18T00:58:42;102635.09;;;7.65;88.07
54948;BME280;41113;41.882;12.530;2023-02-18T01:01:09;102626.00;;;7.69;88.27
54948;BME280;41113;41.882;12.530;2023-02-18T01:03:36;102628.66;;;7.69;87.45
54948;BME280;41113;41.882;12.530;2023-02-18T01:06:02;102634.16;;;7.66;87.83
54948;BME280;41113;41.882;12.530;2023-02-18T01:08:28;102635.53;;;7.56;88.23
54948;BME280;41113;41.882;12.530;2023-02-18T01:10:56;102631.13;;;7.35;89.09
54948;BME280;41113;41.882;12.530;2023-02-18T01:13:22;102629.25;;;7.37;88.91
54948;BME280;41113;41.882;12.530;2023-02-18T01:15:47;102625.06;;;7.31;89.43
54948;BME280;41113;41.882;12.530;2023-02-18T01:18:13;102626.78;;;7.32;89.59
54948;BME280;41113;41.882;12.530;2023-02-18T01:20:40;102621.84;;;7.23;89.90
54948;BME280;41113;41.882;12.530;2023-02-18T01:23:06;102623.00;;;7.17;90.12
54948;BME280;41113;41.882;12.530;2023-02-18T01:25:35;102623.09;;;7.14;90.33
54948;BME280;41113;41.882;12.530;2023-02-18T01:28:00;102618.16;;;7.05;90.54
54948;BME280;41113;41.882;12.530;2023-02-18T01:30:26;102616.56;;;7.01;90.83
54948;BME280;41113;41.882;12.530;2023-02-18T01:32:51;102607.09;;;6.94;90.91
54948;BME280;41113;41.882;12.530;2023-02-18T01:35:18;102611.22;;;7.01;90.72
54948;BME280;41113;41.882;12.530;2023-02-18T01:37:45;102598.13;;;6.95;90.90
54948;BME280;41113;41.882;12.530;2023-02-18T01:40:13;102594.13;;;6.85;91.27
54948;BME280;41113;41.882;12.530;2023-02-18T01:42:39;102592.41;;;6.84;91.76
54948;BME280;41113;41.882;12.530;2023-02-18T01:48:05;102584.94;;;6.70;91.95
54948;BME280;41113;41.882;12.530;2023-02-18T01:50:34;102585.81;;;6.71;92.31
54948;BME280;41113;41.882;12.530;2023-02-18T01:53:00;102590.91;;;6.77;92.05
54948;BME280;41113;41.882;12.530;2023-02-18T01:55:26;102588.84;;;6.83;91.19
54948;BME280;41113;41.882;12.530;2023-02-18T01:57:52;102597.66;;;6.85;90.67
54948;BME280;41113;41.882;12.530;2023-02-18T02:00:19;102596.25;;;6.97;90.37
54948;BME280;41113;41.882;12.530;2023-02-18T02:02:47;102606.09;;;7.17;89.64
54948;BME280;41113;41.882;12.530;2023-02-18T02:05:14;102597.47;;;7.31;88.38
54948;BME280;41113;41.882;12.530;2023-02-18T02:07:42;102597.03;;;7.40;87.50
54948;BME280;41113;41.882;12.530;2023-02-18T02:10:10;102602.38;;;7.40;86.49
54948;BME280;41113;41.882;12.530;2023-02-18T02:15:15;102603.66;;;7.31;86.37
54948;BME280;41113;41.882;12.530;2023-02-18T02:23:56;102614.19;;;6.73;87.18
54948;BME280;41113;41.882;12.530;2023-02-18T02:45:36;102599.03;;;6.53;89.14
54948;BME280;41113;41.882;12.530;2023-02-18T02:50:47;102603.19;;;6.81;87.86
54948;BME280;41113;41.882;12.530;2023-02-18T02:53:20;102598.19;;;6.94;87.28
54948;BME280;41113;41.882;12.530;2023-02-18T02:55:47;102605.88;;;7.01;86.83
54948;BME280;41113;41.882;12.530;2023-02-18T02:58:14;102597.28;;;6.95;86.02
54948;BME280;41113;41.882;12.530;2023-02-18T03:06:25;102593.56;;;6.35;87.30
54948;BME280;41113;41.882;12.530;2023-02-18T03:09:09;102601.06;;;6.25;87.92
54948;BME280;41113;41.882;12.530;2023-02-18T03:15:04;102586.59;;;6.09;88.49
54948;BME280;41113;41.882;12.530;2023-02-18T03:17:38;102585.72;;;6.08;88.45
54948;BME280;41113;41.882;12.530;2023-02-18T03:20:22;102577.78;;;6.07;88.02
54948;BME280;41113;41.882;12.530;2023-02-18T03:22:51;102579.16;;;6.17;87.84
54948;BME280;41113;41.882;12.530;2023-02-18T03:25:18;102579.28;;;6.14;87.39
54948;BME280;41113;41.882;12.530;2023-02-18T03:27:54;102589.50;;;6.03;87.52
54948;BME280;41113;41.882;12.530;2023-02-18T03:30:34;102589.94;;;5.92;87.95
54948;BME280;41113;41.882;12.530;2023-02-18T03:33:07;102590.81;;;5.92;88.32
54948;BME280;41113;41.882;12.530;2023-02-18T03:35:35;102592.19;;;6.03;87.96
54948;BME280;41113;41.882;12.530;2023-02-18T03:38:35;102585.97;;;6.02;87.38
54948;BME280;41113;41.882;12.530;2023-02-18T03:41:03;102589.38;;;6.06;87.30
54948;BME280;41113;41.882;12.530;2023-02-18T03:43:29;102582.50;;;6.00;87.08
54948;BME280;41113;41.882;12.530;2023-02-18T03:45:55;102594.28;;;5.95;87.60
54948;BME280;41113;41.882;12.530;2023-02-18T03:48:20;102589.06;;;5.91;87.69
54948;BME280;41113;41.882;12.530;2023-02-18T03:50:45;102591.69;;;5.93;87.73
54948;BME280;41113;41.882;12.530;2023-02-18T03:53:11;102595.28;;;5.92;87.87
54948;BME280;41113;41.882;12.530;2023-02-18T03:55:36;102598.69;;;5.96;87.68
54948;BME280;41113;41.882;12.530;2023-02-18T03:58:01;102599.50;;;5.98;87.81
54948;BME280;41113;41.882;12.530;2023-02-18T04:00:27;102595.91;;;5.99;87.94
54948;BME280;41113;41.882;12.530;2023-02-18T04:02:52;102587.66;;;6.05;88.07
54948;BME280;41113;41.882;12.530;2023-02-18T04:05:18;102596.53;;;6.05;87.72
54948;BME280;41113;41.882;12.530;2023-02-18T04:07:43;102602.59;;;6.09;87.84
54948;BME280;41113;41.882;12.530;2023-02-18T04:10:09;102601.66;;;6.10;87.84
54948;BME280;41113;41.882;12.530;2023-02-18T04:12:34;102597.13;;;5.90;88.12
54948;BME280;41113;41.882;12.530;2023-02-18T04:15:00;102594.69;;;5.82;88.04
54948;BME280;41113;41.882;12.530;2023-02-18T04:17:25;102597.56;;;5.78;88.54
54948;BME280;41113;41.882;12.530;2023-02-18T04:19:50;102597.72;;;5.73;88.66
54948;BME280;41113;41.882;12.530;2023-02-18T04:22:16;102601.09;;;5.78;88.70
54948;BME280;41113;41.882;12.530;2023-02-18T04:24:41;102607.59;;;5.71;88.73
54948;BME280;41113;41.882;12.530;2023-02-18T04:27:07;102607.47;;;5.74;88.46
54948;BME280;41113;41.882;12.530;2023-02-18T04:29:32;102599.75;;;5.67;88.71
54948;BME280;41113;41.882;12.530;2023-02-18T04:31:57;102609.78;;;5.60;88.70
54948;BME280;41113;41.882;12.530;2023-02-18T04:34:23;102610.84;;;5.56;88.90
54948;BME280;41113;41.882;12.530;2023-02-18T04:36:48;102608.38;;;5.50;89.35
54948;BME280;41113;41.882;12.530;2023-02-18T04:39:17;102606.31;;;5.58;89.07
54948;BME280;41113;41.882;12.530;2023-02-18T04:41:42;102609.44;;;5.69;88.98
54948;BME280;41113;41.882;12.530;2023-02-18T04:44:08;102613.28;;;5.62;89.14
54948;BME280;41113;41.882;12.530;2023-02-18T04:46:33;102614.88;;;5.66;88.96
54948;BME280;41113;41.882;12.530;2023-02-18T04:48:58;102619.34;;;5.66;88.52
54948;BME280;41113;41.882;12.530;2023-02-18T04:51:24;102613.63;;;5.53;89.20
54948;BME280;41113;41.882;12.530;2023-02-18T04:53:49;102614.69;;;5.47;89.37
54948;BME280;41113;41.882;12.530;2023-02-18T04:56:15;102611.41;;;5.64;89.23
54948;BME280;41113;41.882;12.530;2023-02-18T04:58:40;102617.97;;;5.55;88.61
54948;BME280;41113;41.882;12.530;2023-02-18T05:01:06;102613.69;;;5.50;89.09
54948;BME280;41113;41.882;12.530;2023-02-18T05:03:31;102623.56;;;5.48;89.88
54948;BME280;41113;41.882;12.530;2023-02-18T05:05:57;102622.69;;;5.47;89.98
54948;BME280;41113;41.882;12.530;2023-02-18T05:08:23;102625.78;;;5.60;89.65
54948;BME280;41113;41.882;12.530;2023-02-18T05:10:48;102625.56;;;5.66;89.09
54948;BME280;41113;41.882;12.530;2023-02-18T05:13:13;102627.53;;;5.61;89.10
54948;BME280;41113;41.882;12.530;2023-02-18T05:15:39;102621.56;;;5.54;89.22
54948;BME280;41113;41.882;12.530;2023-02-18T05:18:05;102621.56;;;5.54;89.14
54948;BME280;41113;41.882;12.530;2023-02-18T05:20:31;102623.13;;;5.60;88.84
54948;BME280;41113;41.882;12.530;2023-02-18T05:22:56;102620.22;;;5.66;89.01
54948;BME280;41113;41.882;12.530;2023-02-18T05:25:22;102624.38;;;5.50;88.91
54948;BME280;41113;41.882;12.530;2023-02-18T05:27:47;102615.25;;;5.32;89.71
54948;BME280;41113;41.882;12.530;2023-02-18T05:30:13;102616.34;;;5.26;90.55
54948;BME280;41113;41.882;12.530;2023-02-18T05:32:38;102621.69;;;5.26;90.82
54948;BME280;41113;41.882;12.530;2023-02-18T05:35:04;102629.97;;;5.17;90.71
54948;BME280;41113;41.882;12.530;2023-02-18T05:37:29;102627.59;;;5.10;91.07
54948;BME280;41113;41.882;12.530;2023-02-18T05:39:55;102624.09;;;5.08;91.38
54948;BME280;41113;41.882;12.530;2023-02-18T05:42:20;102626.00;;;5.04;91.57
54948;BME280;41113;41.882;12.530;2023-02-18T05:44:47;102624.28;;;5.03;91.81
54948;BME280;41113;41.882;12.530;2023-02-18T05:47:12;102631.13;;;5.10;91.79
54948;BME280;41113;41.882;12.530;2023-02-18T05:49:39;102628.72;;;5.03;91.08
54948;BME280;41113;41.882;12.530;2023-02-18T05:52:06;102629.72;;;5.00;90.98
54948;BME280;41113;41.882;12.530;2023-02-18T05:54:32;102623.72;;;5.18;91.22
54948;BME280;41113;41.882;12.530;2023-02-18T05:56:57;102624.59;;;5.19;90.36
54948;BME280;41113;41.882;12.530;2023-02-18T05:59:23;102625.78;;;5.10;90.43
54948;BME280;41113;41.882;12.530;2023-02-18T06:01:48;102628.91;;;4.98;90.43
54948;BME280;41113;41.882;12.530;2023-02-18T06:04:14;102621.94;;;4.94;90.91
54948;BME280;41113;41.882;12.530;2023-02-18T06:06:40;102627.59;;;4.83;91.49
54948;BME280;41113;41.882;12.530;2023-02-18T06:09:06;102633.69;;;4.87;91.99
54948;BME280;41113;41.882;12.530;2023-02-18T06:11:33;102631.78;;;4.92;91.78
54948;BME280;41113;41.882;12.530;2023-02-18T06:13:58;102629.72;;;5.00;91.72
54948;BME280;41113;41.882;12.530;2023-02-18T06:16:24;102639.06;;;5.12;91.43
54948;BME280;41113;41.882;12.530;2023-02-18T06:18:50;102637.88;;;5.20;90.71
54948;BME280;41113;41.882;12.530;2023-02-18T06:21:15;102634.50;;;5.15;90.44
54948;BME280;41113;41.882;12.530;2023-02-18T06:23:41;102638.06;;;5.14;90.08
54948;BME280;41113;41.882;12.530;2023-02-18T06:26:06;102631.19;;;5.09;89.64
54948;BME280;41113;41.882;12.530;2023-02-18T06:28:32;102645.31;;;5.11;89.97
54948;BME280;41113;41.882;12.530;2023-02-18T06:30:57;102648.94;;;5.08;89.85
54948;BME280;41113;41.882;12.530;2023-02-18T06:33:23;102650.56;;;5.12;89.93
54948;BME280;41113;41.882;12.530;2023-02-18T06:36:07;102649.31;;;5.24;90.04
54948;BME280;41113;41.882;12.530;2023-02-18T06:38:37;102648.97;;;5.33;89.38
54948;BME280;41113;41.882;12.530;2023-02-18T06:41:04;102648.69;;;5.41;88.45
54948;BME280;41113;41.882;12.530;2023-02-18T06:43:29;102651.13;;;5.47;88.38
54948;BME280;41113;41.882;12.530;2023-02-18T06:45:55;102641.28;;;5.49;87.92
54948;BME280;41113;41.882;12.530;2023-02-18T06:48:22;102651.63;;;5.33;88.28
54948;BME280;41113;41.882;12.530;2023-02-18T06:50:48;102650.94;;;5.28;88.44
54948;BME280;41113;41.882;12.530;2023-02-18T06:53:14;102653.44;;;5.32;88.59
54948;BME280;41113;41.882;12.530;2023-02-18T06:55:41;102658.25;;;5.46;87.66
54948;BME280;41113;41.882;12.530;2023-02-18T06:58:08;102661.94;;;5.42;87.64
54948;BME280;41113;41.882;12.530;2023-02-18T07:00:34;102665.47;;;5.43;87.83
54948;BME280;41113;41.882;12.530;2023-02-18T07:03:00;102665.47;;;5.43;87.44
54948;BME280;41113;41.882;12.530;2023-02-18T07:05:26;102668.53;;;5.57;87.36
54948;BME280;41113;41.882;12.530;2023-02-18T07:07:52;102658.13;;;5.74;87.04
54948;BME280;41113;41.882;12.530;2023-02-18T07:10:17;102663.94;;;5.85;86.18
54948;BME280;41113;41.882;12.530;2023-02-18T07:12:43;102663.75;;;5.91;85.20
54948;BME280;41113;41.882;12.530;2023-02-18T07:15:09;102661.22;;;5.87;85.70
54948;BME280;41113;41.882;12.530;2023-02-18T07:17:35;102665.13;;;6.02;85.42
54948;BME280;41113;41.882;12.530;2023-02-18T07:20:00;102665.00;;;6.05;85.12
54948;BME280;41113;41.882;12.530;2023-02-18T07:22:26;102667.59;;;6.06;84.89
54948;BME280;41113;41.882;12.530;2023-02-18T07:24:52;102669.75;;;6.20;84.95
54948;BME280;41113;41.882;12.530;2023-02-18T07:27:18;102665.41;;;6.39;84.41
54948;BME280;41113;41.882;12.530;2023-02-18T07:29:44;102674.28;;;6.40;83.32
54948;BME280;41113;41.882;12.530;2023-02-18T07:32:13;102677.38;;;6.52;83.90
54948;BME280;41113;41.882;12.530;2023-02-18T07:34:41;102675.00;;;6.67;83.50
54948;BME280;41113;41.882;12.530;2023-02-18T07:37:08;102680.09;;;6.51;82.80
54948;BME280;41113;41.882;12.530;2023-02-18T07:39:43;102677.97;;;6.37;83.75
54948;BME280;41113;41.882;12.530;2023-02-18T07:42:12;102686.19;;;6.54;83.75
54948;BME280;41113;41.882;12.530;2023-02-18T07:44:39;102683.50;;;6.54;83.43
54948;BME280;41113;41.882;12.530;2023-02-18T07:47:06;102686.22;;;6.75;82.80
54948;BME280;41113;41.882;12.530;2023-02-18T07:49:32;102693.03;;;6.82;82.60
54948;BME280;41113;41.882;12.530;2023-02-18T07:51:58;102685.09;;;7.02;82.10
54948;BME280;41113;41.882;12.530;2023-02-18T07:54:24;102690.97;;;7.10;81.42
54948;BME280;41113;41.882;12.530;2023-02-18T07:56:50;102685.88;;;7.04;81.53
54948;BME280;41113;41.882;12.530;2023-02-18T07:59:15;102681.94;;;6.93;81.20
54948;BME280;41113;41.882;12.530;2023-02-18T08:01:41;102690.44;;;7.02;81.79
54948;BME280;41113;41.882;12.530;2023-02-18T08:04:06;102689.50;;;7.03;81.43
54948;BME280;41113;41.882;12.530;2023-02-18T08:06:37;102687.25;;;7.35;81.42
54948;BME280;41113;41.882;12.530;2023-02-18T08:09:03;102691.25;;;7.45;80.17
54948;BME280;41113;41.882;12.530;2023-02-18T08:11:30;102688.19;;;7.34;79.50
54948;BME280;41113;41.882;12.530;2023-02-18T08:13:55;102697.69;;;7.21;79.69
54948;BME280;41113;41.882;12.530;2023-02-18T08:16:21;102702.59;;;7.09;80.30
54948;BME280;41113;41.882;12.530;2023-02-18T08:18:48;102696.56;;;7.04;81.10
54948;BME280;41113;41.882;12.530;2023-02-18T08:21:16;102696.84;;;6.98;81.52
54948;BME280;41113;41.882;12.530;2023-02-18T08:23:42;102699.88;;;7.31;81.15
54948;BME280;41113;41.882;12.530;2023-02-18T08:26:08;102689.00;;;7.56;79.98
54948;BME280;41113;41.882;12.530;2023-02-18T08:28:33;102691.25;;;7.65;79.28
54948;BME280;41113;41.882;12.530;2023-02-18T08:30:59;102697.47;;;7.86;79.24
54948;BME280;41113;41.882;12.530;2023-02-18T08:33:25;102698.41;;;8.04;78.28
54948;BME280;41113;41.882;12.530;2023-02-18T08:35:51;102693.56;;;8.12;78.22
54948;BME280;41113;41.882;12.530;2023-02-18T08:38:17;102693.44;;;8.15;77.72
54948;BME280;41113;41.882;12.530;2023-02-18T08:40:43;102698.66;;;8.18;77.80
54948;BME280;41113;41.882;12.530;2023-02-18T08:43:08;102703.34;;;8.13;77.07
54948;BME280;41113;41.882;12.530;2023-02-18T08:45:35;102706.28;;;8.07;77.63
54948;BME280;41113;41.882;12.530;2023-02-18T08:48:03;102698.88;;;8.14;77.50
54948;BME280;41113;41.882;12.530;2023-02-18T08:50:28;102703.72;;;8.24;77.13
54948;BME280;41113;41.882;12.530;2023-02-18T08:52:55;102704.94;;;8.17;77.08
54948;BME280;41113;41.882;12.530;2023-02-18T08:55:21;102699.84;;;8.11;76.84
54948;BME280;41113;41.882;12.530;2023-02-18T08:57:48;102708.50;;;8.18;77.12
54948;BME280;41113;41.882;12.530;2023-02-18T09:00:15;102698.75;;;8.35;76.91
54948;BME280;41113;41.882;12.530;2023-02-18T09:02:42;102713.56;;;8.24;76.31
54948;BME280;41113;41.882;12.530;2023-02-18T09:05:07;102709.53;;;8.34;76.90
54948;BME280;41113;41.882;12.530;2023-02-18T09:07:34;102706.34;;;8.45;76.34
54948;BME280;41113;41.882;12.530;2023-02-18T09:10:00;102708.38;;;8.39;76.36
54948;BME280;41113;41.882;12.530;2023-02-18T09:12:25;102702.00;;;8.61;76.59
54948;BME280;41113;41.882;12.530;2023-02-18T09:14:50;102703.44;;;8.68;75.44
54948;BME280;41113;41.882;12.530;2023-02-18T09:17:16;102691.53;;;8.73;75.89
54948;BME280;41113;41.882;12.530;2023-02-18T09:19:42;102690.88;;;8.87;75.05
54948;BME280;41113;41.882;12.530;2023-02-18T09:22:07;102702.41;;;9.07;75.55
54948;BME280;41113;41.882;12.530;2023-02-18T09:24:37;102692.19;;;9.15;74.99
54948;BME280;41113;41.882;12.530;2023-02-18T09:27:02;102701.16;;;9.48;74.45
54948;BME280;41113;41.882;12.530;2023-02-18T09:29:28;102701.59;;;9.74;72.87
54948;BME280;41113;41.882;12.530;2023-02-18T09:31:53;102690.91;;;9.56;72.05
54948;BME280;41113;41.882;12.530;2023-02-18T09:34:19;102696.88;;;9.61;72.69
54948;BME280;41113;41.882;12.530;2023-02-18T09:36:44;102687.63;;;9.84;71.98
54948;BME280;41113;41.882;12.530;2023-02-18T09:39:09;102691.09;;;9.86;71.75
54948;BME280;41113;41.882;12.530;2023-02-18T09:41:41;102693.41;;;10.10;72.13
54948;BME280;41113;41.882;12.530;2023-02-18T09:44:27;102689.19;;;10.21;71.26
54948;BME280;41113;41.882;12.530;2023-02-18T09:49:43;102681.81;;;10.25;70.80
54948;BME280;41113;41.882;12.530;2023-02-18T09:52:13;102677.84;;;10.32;69.82
54948;BME280;41113;41.882;12.530;2023-02-18T09:54:40;102682.09;;;10.52;69.49
54948;BME280;41113;41.882;12.530;2023-02-18T09:57:17;102665.69;;;10.72;68.95
54948;BME280;41113;41.882;12.530;2023-02-18T09:59:46;102665.53;;;10.75;69.50
54948;BME280;41113;41.882;12.530;2023-02-18T10:02:14;102668.63;;;10.83;68.25
54948;BME280;41113;41.882;12.530;2023-02-18T10:04:44;102674.84;;;11.00;68.76
54948;BME280;41113;41.882;12.530;2023-02-18T10:07:31;102670.88;;;11.21;68.95
54948;BME280;41113;41.882;12.530;2023-02-18T10:10:01;102672.25;;;11.28;67.70
54948;BME280;41113;41.882;12.530;2023-02-18T10:12:29;102672.44;;;11.25;68.65
54948;BME280;41113;41.882;12.530;2023-02-18T10:14:58;102668.63;;;11.43;67.30
54948;BME280;41113;41.882;12.530;2023-02-18T10:17:27;102671.63;;;11.39;68.04
54948;BME280;41113;41.882;12.530;2023-02-18T10:19:55;102664.31;;;11.41;68.10
54948;BME280;41113;41.882;12.530;2023-02-18T10:22:24;102665.19;;;11.56;68.46
54948;BME280;41113;41.882;12.530;2023-02-18T10:24:55;102668.69;;;11.72;67.81
54948;BME280;41113;41.882;12.530;2023-02-18T10:27:30;102671.41;;;11.86;67.66
54948;BME280;41113;41.882;12.530;2023-02-18T10:30:08;102660.81;;;11.83;65.50
54948;BME280;41113;41.882;12.530;2023-02-18T10:32:45;102656.19;;;11.85;64.02
54948;BME280;41113;41.882;12.530;2023-02-18T10:35:23;102654.84;;;11.92;65.48
54948;BME280;41113;41.882;12.530;2023-02-18T10:46:06;102649.06;;;12.12;64.90
54948;BME280;41113;41.882;12.530;2023-02-18T10:51:24;102645.38;;;12.28;63.27
54948;BME280;41113;41.882;12.530;2023-02-18T10:53:52;102638.06;;;12.30;59.73
54948;BME280;41113;41.882;12.530;2023-02-18T10:56:49;102632.88;;;12.27;62.00
54948;BME280;41113;41.882;12.530;2023-02-18T10:59:30;102641.41;;;12.33;60.97
54948;BME280;41113;41.882;12.530;2023-02-18T11:01:59;102635.56;;;12.41;60.77
54948;BME280;41113;41.882;12.530;2023-02-18T11:04:38;102627.16;;;12.45;58.71
54948;BME280;41113;41.882;12.530;2023-02-18T11:07:17;102624.97;;;12.38;58.12
54948;BME280;41113;41.882;12.530;2023-02-18T11:09:47;102620.34;;;12.40;58.21
54948;BME280;41113;41.882;12.530;2023-02-18T11:12:21;102613.16;;;12.53;58.51
54948;BME280;41113;41.882;12.530;2023-02-18T11:15:02;102606.94;;;12.65;60.80
54948;BME280;41113;41.882;12.530;2023-02-18T11:17:32;102609.09;;;12.60;58.70
54948;BME280;41113;41.882;12.530;2023-02-18T11:20:00;102603.47;;;12.51;59.97
54948;BME280;41113;41.882;12.530;2023-02-18T11:22:31;102602.38;;;12.53;61.18
54948;BME280;41113;41.882;12.530;2023-02-18T11:25:03;102600.09;;;12.74;61.30
54948;BME280;41113;41.882;12.530;2023-02-18T11:27:43;102589.97;;;12.77;60.37
54948;BME280;41113;41.882;12.530;2023-02-18T11:30:22;102595.38;;;12.77;58.96
54948;BME280;41113;41.882;12.530;2023-02-18T11:32:54;102590.72;;;12.80;59.95
54948;BME280;41113;41.882;12.530;2023-02-18T11:35:23;102587.94;;;12.81;60.14
54948;BME280;41113;41.882;12.530;2023-02-18T11:37:50;102579.72;;;12.83;57.22
54948;BME280;41113;41.882;12.530;2023-02-18T11:40:25;102584.16;;;12.84;57.51
54948;BME280;41113;41.882;12.530;2023-02-18T11:43:05;102571.53;;;12.71;56.14
54948;BME280;41113;41.882;12.530;2023-02-18T11:45:32;102578.44;;;12.88;58.45
54948;BME280;41113;41.882;12.530;2023-02-18T11:48:01;102566.66;;;12.76;55.07
54948;BME280;41113;41.882;12.530;2023-02-18T11:50:32;102568.53;;;12.89;57.76
54948;BME280;41113;41.882;12.530;2023-02-18T11:52:58;102572.31;;;12.99;57.49
54948;BME280;41113;41.882;12.530;2023-02-18T11:55:26;102562.94;;;13.04;57.55
54948;BME280;41113;41.882;12.530;2023-02-18T11:58:01;102559.16;;;13.07;56.73
54948;BME280;41113;41.882;12.530;2023-02-18T12:00:42;102552.91;;;13.06;56.00
54948;BME280;41113;41.882;12.530;2023-02-18T12:06:14;102543.22;;;13.29;56.38
54948;BME280;41113;41.882;12.530;2023-02-18T12:08:51;102546.88;;;13.28;58.01
54948;BME280;41113;41.882;12.530;2023-02-18T12:11:40;102541.94;;;13.22;55.45
54948;BME280;41113;41.882;12.530;2023-02-18T12:14:16;102536.31;;;13.25;58.00
54948;BME280;41113;41.882;12.530;2023-02-18T12:22:41;102538.22;;;12.98;56.23
54948;BME280;41113;41.882;12.530;2023-02-18T12:33:07;102512.13;;;13.11;57.91
54948;BME280;41113;41.882;12.530;2023-02-18T12:39:11;102514.06;;;13.09;55.88
54948;BME280;41113;41.882;12.530;2023-02-18T12:41:54;102511.38;;;13.09;56.95
54948;BME280;41113;41.882;12.530;2023-02-18T12:59:03;102492.16;;;12.88;58.57
54948;BME280;41113;41.882;12.530;2023-02-18T13:01:40;102491.06;;;12.91;58.39
54948;BME280;41113;41.882;12.530;2023-02-18T13:13:20;102452.88;;;13.09;58.36
54948;BME280;41113;41.882;12.530;2023-02-18T13:19:01;102444.16;;;13.19;57.35
54948;BME280;41113;41.882;12.530;2023-02-18T13:21:27;102445.03;;;13.19;58.63
54948;BME280;41113;41.882;12.530;2023-02-18T13:24:29;102445.22;;;13.16;58.25
54948;BME280;41113;41.882;12.530;2023-02-18T13:27:06;102442.50;;;13.16;58.45
54948;BME280;41113;41.882;12.530;2023-02-18T13:32:25;102431.94;;;13.13;59.11
54948;BME280;41113;41.882;12.530;2023-02-18T13:41:01;102426.03;;;12.95;58.92
54948;BME280;41113;41.882;12.530;2023-02-18T13:52:00;102412.66;;;12.94;59.20
54948;BME280;41113;41.882;12.530;2023-02-18T13:54:31;102401.00;;;12.93;58.84
54948;BME280;41113;41.882;12.530;2023-02-18T13:57:06;102404.78;;;12.91;59.67
54948;BME280;41113;41.882;12.530;2023-02-18T13:59:39;102406.31;;;12.82;58.31
54948;BME280;41113;41.882;12.530;2023-02-18T14:26:27;102391.72;;;12.85;59.54
54948;BME280;41113;41.882;12.530;2023-02-18T14:29:00;102390.22;;;12.81;60.45
54948;BME280;41113;41.882;12.530;2023-02-18T14:36:31;102392.19;;;12.78;60.75
54948;BME280;41113;41.882;12.530;2023-02-18T14:39:07;102386.38;;;12.72;60.58
54948;BME280;41113;41.882;12.530;2023-02-18T14:49:55;102384.84;;;12.55;60.75
54948;BME280;41113;41.882;12.530;2023-02-18T14:52:33;102382.91;;;12.57;61.00
54948;BME280;41113;41.882;12.530;2023-02-18T14:55:02;102382.16;;;12.55;61.11
54948;BME280;41113;41.882;12.530;2023-02-18T14:57:53;102375.78;;;12.56;61.00
54948;BME280;41113;41.882;12.530;2023-02-18T15:00:22;102376.75;;;12.55;61.11
54948;BME280;41113;41.882;12.530;2023-02-18T15:02:51;102372.34;;;12.54;61.37
54948;BME280;41113;41.882;12.530;2023-02-18T15:05:20;102372.34;;;12.54;61.35
54948;BME280;41113;41.882;12.530;2023-02-18T15:08:03;102374.28;;;12.52;61.34
54948;BME280;41113;41.882;12.530;2023-02-18T15:13:31;102371.69;;;12.51;61.59
54948;BME280;41113;41.882;12.530;2023-02-18T15:16:03;102376.22;;;12.50;61.54
54948;BME280;41113;41.882;12.530;2023-02-18T15:18:42;102374.50;;;12.49;61.21
54948;BME280;41113;41.882;12.530;2023-02-18T15:21:20;102364.38;;;12.53;61.48
54948;BME280;41113;41.882;12.530;2023-02-18T15:23:48;102372.22;;;12.56;61.57
54948;BME280;41113;41.882;12.530;2023-02-18T15:26:14;102376.53;;;12.58;61.47
54948;BME280;41113;41.882;12.530;2023-02-18T15:28:52;102376.66;;;12.57;60.79
54948;BME280;41113;41.882;12.530;2023-02-18T15:31:24;102375.78;;;12.56;61.38
54948;BME280;41113;41.882;12.530;2023-02-18T15:33:50;102379.44;;;12.55;61.75
54948;BME280;41113;41.882;12.530;2023-02-18T15:36:16;102371.16;;;12.58;62.01